createdAt,value
2019-01-12T00:00:29.636Z,99630.08
2019-01-12T00:01:31.255Z,99627.08
2019-01-12T00:02:32.349Z,99628.58
2019-01-12T00:03:33.560Z,99631.26
2019-01-12T00:04:34.697Z,99632.59
2019-01-12T00:05:35.806Z,99631.45
2019-01-12T00:06:36.917Z,99643.50
2019-01-12T00:07:38.038Z,99639.16
2019-01-12T00:08:39.283Z,99649.53
2019-01-12T00:09:40.390Z,99645.68
2019-01-12T00:10:41.600Z,99642.19
2019-01-12T00:11:42.713Z,99645.36
2019-01-12T00:12:43.829Z,99648.55
2019-01-12T00:13:44.940Z,99652.23
2019-01-12T00:14:46.072Z,99657.27
2019-01-12T00:15:47.191Z,99647.05
2019-01-12T00:16:48.303Z,99665.45
2019-01-12T00:17:49.420Z,99671.83
2019-01-12T00:18:50.536Z,99664.17
2019-01-12T00:19:51.759Z,99672.50
2019-01-12T00:20:52.976Z,99657.95
2019-01-12T00:21:54.092Z,99662.48
2019-01-12T00:22:55.300Z,99667.83
2019-01-12T00:23:56.418Z,99669.17
2019-01-12T00:24:57.657Z,99675.86
2019-01-12T00:25:58.780Z,99669.66
2019-01-12T00:26:59.892Z,99671.84
2019-01-12T00:28:01.008Z,99672.86
2019-01-12T00:29:02.116Z,99675.86
2019-01-12T00:30:08.897Z,99673.19
2019-01-12T00:31:10.013Z,99678.21
2019-01-12T00:32:11.376Z,99680.37
2019-01-12T00:33:12.488Z,99682.55
2019-01-12T00:34:13.705Z,99681.70
2019-01-12T00:35:14.828Z,99686.73
2019-01-12T00:36:15.942Z,99684.58
2019-01-12T00:37:17.137Z,99691.27
2019-01-12T00:38:18.252Z,99685.91
2019-01-12T00:39:19.416Z,99691.27
2019-01-12T00:40:20.609Z,99691.76
2019-01-12T00:41:21.720Z,99692.60
2019-01-12T00:42:22.936Z,99692.28
2019-01-12T00:43:24.052Z,99700.30
2019-01-12T00:44:25.165Z,99698.97
2019-01-12T00:45:26.292Z,99693.09
2019-01-12T00:46:27.412Z,99690.28
2019-01-12T00:47:28.630Z,99691.95
2019-01-12T00:48:29.741Z,99695.11
2019-01-12T00:49:30.850Z,99701.80
2019-01-12T00:50:31.975Z,99704.67
2019-01-12T00:51:33.087Z,99706.01
2019-01-12T00:52:34.195Z,99705.68
2019-01-12T00:53:35.318Z,99706.69
2019-01-12T00:54:38.562Z,99708.36
2019-01-12T00:55:39.665Z,99709.70
2019-01-12T00:56:40.776Z,99710.70
2019-01-12T00:57:41.891Z,99704.02
2019-01-12T00:58:43.003Z,99709.37
2019-01-12T00:59:44.126Z,99705.02
2019-01-12T01:00:45.352Z,99713.38
2019-01-12T01:01:46.472Z,99705.02
2019-01-12T01:02:47.576Z,99703.69
2019-01-12T01:03:48.688Z,99713.05
2019-01-12T01:04:49.796Z,99712.53
2019-01-12T01:05:51.223Z,99720.56
2019-01-12T01:06:52.343Z,99726.43
2019-01-12T01:07:53.455Z,99718.41
2019-01-12T01:08:54.665Z,99715.73
2019-01-12T01:09:55.780Z,99718.41
2019-01-12T01:10:56.902Z,99709.03
2019-01-12T01:11:58.011Z,99718.08
2019-01-12T01:12:59.226Z,99717.22
2019-01-12T01:14:00.336Z,99714.06
2019-01-12T01:15:01.448Z,99719.41
2019-01-12T01:16:02.768Z,99722.09
2019-01-12T01:17:03.982Z,99720.75
2019-01-12T01:18:05.091Z,99732.60
2019-01-12T01:19:06.312Z,99727.77
2019-01-12T01:20:10.426Z,99723.42
2019-01-12T01:21:11.550Z,99737.62
2019-01-12T01:22:12.661Z,99732.27
2019-01-12T01:23:13.768Z,99735.47
2019-01-12T01:24:14.987Z,99738.14
2019-01-12T01:25:16.132Z,99737.13
2019-01-12T01:26:17.357Z,99731.78
2019-01-12T01:27:18.477Z,99733.61
2019-01-12T01:28:19.592Z,99729.11
2019-01-12T01:29:20.700Z,99732.80
2019-01-12T01:30:21.820Z,99734.46
2019-01-12T01:31:23.058Z,99736.61
2019-01-12T01:32:24.268Z,99741.31
2019-01-12T01:33:28.117Z,99744.84
2019-01-12T01:34:28.845Z,99745.32
2019-01-12T01:35:29.954Z,99739.16
2019-01-12T01:36:31.081Z,99743.16
2019-01-12T01:37:32.205Z,99752.86
2019-01-12T01:38:33.318Z,99751.53
2019-01-12T01:39:34.540Z,99755.02
2019-01-12T01:40:35.649Z,99756.87
2019-01-12T01:41:36.777Z,99759.03
2019-01-12T01:42:37.889Z,99762.56
2019-01-12T01:43:39.000Z,99762.03
2019-01-12T01:44:40.108Z,99765.23
2019-01-12T01:45:41.224Z,99763.89
2019-01-12T01:46:42.352Z,99764.23
2019-01-12T01:47:43.467Z,99758.88
2019-01-12T01:48:44.580Z,99771.25
2019-01-12T01:49:45.695Z,99759.22
2019-01-12T01:50:46.913Z,99767.56
2019-01-12T01:51:48.047Z,99766.55
2019-01-12T01:52:49.153Z,99769.56
2019-01-12T01:53:50.277Z,99773.24
2019-01-12T01:54:52.899Z,99776.25
2019-01-12T01:55:54.308Z,99769.56
2019-01-12T01:56:55.437Z,99772.56
2019-01-12T01:57:56.653Z,99774.72
2019-01-12T01:58:57.765Z,99774.23
2019-01-12T01:59:58.928Z,99777.92
2019-01-12T02:01:00.093Z,99775.73
2019-01-12T02:02:01.219Z,99772.23
2019-01-12T02:03:02.329Z,99771.91
2019-01-12T02:04:03.446Z,99779.94
2019-01-12T02:05:04.657Z,99793.80
2019-01-12T02:06:05.780Z,99782.28
2019-01-12T02:07:06.900Z,99773.92
2019-01-12T02:08:08.013Z,99773.92
2019-01-12T02:09:09.228Z,99770.40
2019-01-12T02:10:14.049Z,99777.09
2019-01-12T02:11:15.165Z,99780.28
2019-01-12T02:12:16.298Z,99777.61
2019-01-12T02:13:17.408Z,99787.98
2019-01-12T02:14:18.528Z,99789.81
2019-01-12T02:15:20.542Z,99782.63
2019-01-12T02:16:21.652Z,99782.63
2019-01-12T02:17:22.785Z,99786.64
2019-01-12T02:18:23.896Z,99793.00
2019-01-12T02:19:25.008Z,99795.68
2019-01-12T02:20:26.224Z,99793.00
2019-01-12T02:21:27.444Z,99794.83
2019-01-12T02:22:28.565Z,99793.16
2019-01-12T02:23:29.683Z,99790.48
2019-01-12T02:24:30.792Z,99789.67
2019-01-12T02:25:31.919Z,99794.17
2019-01-12T02:26:33.025Z,99791.50
2019-01-12T02:27:34.262Z,99791.01
2019-01-12T02:28:35.480Z,99788.33
2019-01-12T02:29:36.596Z,99787.81
2019-01-12T02:30:37.706Z,99792.34
2019-01-12T02:31:38.930Z,99792.83
2019-01-12T02:32:40.059Z,99786.66
2019-01-12T02:33:41.272Z,99788.00
2019-01-12T02:34:42.383Z,99789.34
2019-01-12T02:35:43.502Z,99785.81
2019-01-12T02:36:44.611Z,99779.64
2019-01-12T02:37:45.848Z,99775.62
2019-01-12T02:38:46.979Z,99786.81
2019-01-12T02:39:48.085Z,99787.34
2019-01-12T02:40:49.194Z,99786.00
2019-01-12T02:41:50.309Z,99782.96
2019-01-12T02:42:51.431Z,99782.47
2019-01-12T02:43:52.546Z,99782.14
2019-01-12T02:44:53.661Z,99785.64
2019-01-12T02:45:54.876Z,99782.63
2019-01-12T02:46:55.993Z,99786.64
2019-01-12T02:47:57.128Z,99786.64
2019-01-12T02:48:58.242Z,99777.80
2019-01-12T02:49:59.354Z,99774.27
2019-01-12T02:51:00.480Z,99775.13
2019-01-12T02:52:01.590Z,99772.94
2019-01-12T02:53:02.712Z,99779.27
2019-01-12T02:54:03.824Z,99772.57
2019-01-12T02:55:09.045Z,99779.27
2019-01-12T02:56:09.049Z,99776.09
2019-01-12T02:57:10.265Z,99779.27
2019-01-12T02:58:11.389Z,99771.23
2019-01-12T02:59:12.507Z,99770.91
2019-01-12T03:00:15.420Z,99772.77
2019-01-12T03:01:16.529Z,99764.22
2019-01-12T03:02:17.640Z,99770.09
2019-01-12T03:03:18.768Z,99769.23
2019-01-12T03:04:19.875Z,99771.91
2019-01-12T03:05:21.092Z,99763.88
2019-01-12T03:06:22.205Z,99719.86
2019-01-12T03:07:23.567Z,99768.09
2019-01-12T03:08:24.692Z,99770.25
2019-01-12T03:09:25.808Z,99747.52
2019-01-12T03:10:26.917Z,99764.89
2019-01-12T03:11:28.038Z,99765.74
2019-01-12T03:12:29.197Z,99771.58
2019-01-12T03:13:30.348Z,99762.89
2019-01-12T03:14:31.465Z,99755.20
2019-01-12T03:15:32.578Z,99768.25
2019-01-12T03:16:33.693Z,99768.25
2019-01-12T03:17:34.904Z,99763.41
2019-01-12T03:18:36.029Z,99773.27
2019-01-12T03:19:37.147Z,99763.91
2019-01-12T03:20:38.260Z,99765.23
2019-01-12T03:21:39.378Z,99766.25
2019-01-12T03:22:40.536Z,99765.23
2019-01-12T03:23:41.664Z,99766.09
2019-01-12T03:24:42.783Z,99764.91
2019-01-12T03:25:43.893Z,99770.92
2019-01-12T03:26:45.012Z,99761.23
2019-01-12T03:27:46.148Z,99762.08
2019-01-12T03:28:47.270Z,99768.92
2019-01-12T03:29:48.484Z,99761.75
2019-01-12T03:30:49.608Z,99762.56
2019-01-12T03:31:50.715Z,99753.72
2019-01-12T03:32:51.835Z,99759.56
2019-01-12T03:33:53.065Z,99760.89
2019-01-12T03:34:54.172Z,99756.73
2019-01-12T03:35:55.285Z,99757.73
2019-01-12T03:36:56.401Z,99752.71
2019-01-12T03:37:57.614Z,99747.85
2019-01-12T03:38:58.740Z,99762.89
2019-01-12T03:39:59.855Z,99757.55
2019-01-12T03:41:00.969Z,99752.71
2019-01-12T03:42:02.081Z,99758.88
2019-01-12T03:43:03.596Z,99750.85
2019-01-12T03:44:04.723Z,99753.53
2019-01-12T03:45:08.233Z,99745.50
2019-01-12T03:46:09.440Z,99741.82
2019-01-12T03:47:10.555Z,99739.14
2019-01-12T03:48:11.673Z,99740.16
2019-01-12T03:49:12.810Z,99753.86
2019-01-12T03:50:14.419Z,99751.19
2019-01-12T03:51:15.532Z,99743.48
2019-01-12T03:52:16.638Z,99745.67
2019-01-12T03:53:17.752Z,99745.34
2019-01-12T03:54:18.880Z,99749.17
2019-01-12T03:55:25.618Z,99759.05
2019-01-12T03:56:23.016Z,99755.86
2019-01-12T03:57:24.133Z,99748.84
2019-01-12T03:58:25.243Z,99757.20
2019-01-12T03:59:26.376Z,99753.19
2019-01-12T04:00:27.485Z,99746.16
2019-01-12T04:01:28.604Z,99752.36
2019-01-12T04:02:29.726Z,99738.80
2019-01-12T04:03:30.840Z,99746.01
2019-01-12T04:04:31.973Z,99739.12
2019-01-12T04:05:33.080Z,99743.66
2019-01-12T04:06:34.197Z,99740.13
2019-01-12T04:07:35.307Z,99736.64
2019-01-12T04:08:36.420Z,99733.11
2019-01-12T04:09:37.718Z,99737.13
2019-01-12T04:10:38.824Z,99734.45
2019-01-12T04:11:39.969Z,99724.76
2019-01-12T04:12:41.070Z,99737.65
2019-01-12T04:13:42.180Z,99734.64
2019-01-12T04:14:43.305Z,99736.80
2019-01-12T04:15:44.417Z,99730.30
2019-01-12T04:16:45.533Z,99732.98
2019-01-12T04:17:46.815Z,99728.11
2019-01-12T04:18:47.929Z,99728.11
2019-01-12T04:19:49.053Z,99722.43
2019-01-12T04:20:50.163Z,99714.41
2019-01-12T04:21:51.476Z,99719.76
2019-01-12T04:22:52.587Z,99719.76
2019-01-12T04:23:53.703Z,99715.94
2019-01-12T04:24:54.829Z,99715.41
2019-01-12T04:25:56.050Z,99711.59
2019-01-12T04:26:57.295Z,99712.41
2019-01-12T04:27:58.510Z,99712.93
2019-01-12T04:28:59.621Z,99704.38
2019-01-12T04:30:00.754Z,99701.71
2019-01-12T04:31:01.874Z,99704.38
2019-01-12T04:32:02.986Z,99700.04
2019-01-12T04:33:04.104Z,99708.40
2019-01-12T04:34:05.213Z,99701.38
2019-01-12T04:35:06.744Z,99695.21
2019-01-12T04:36:07.860Z,99695.70
2019-01-12T04:37:08.970Z,99693.35
2019-01-12T04:38:10.201Z,99703.05
2019-01-12T04:39:11.315Z,99697.89
2019-01-12T04:40:15.141Z,99702.39
2019-01-12T04:41:16.253Z,99702.05
2019-01-12T04:42:17.368Z,99695.70
2019-01-12T04:43:18.490Z,99695.37
2019-01-12T04:44:19.608Z,99699.38
2019-01-12T04:45:20.794Z,99690.87
2019-01-12T04:46:21.944Z,99701.57
2019-01-12T04:47:23.059Z,99696.22
2019-01-12T04:48:24.171Z,99693.55
2019-01-12T04:49:25.284Z,99698.89
2019-01-12T04:50:26.516Z,99700.23
2019-01-12T04:51:27.730Z,99699.71
2019-01-12T04:52:28.842Z,99701.90
2019-01-12T04:53:29.961Z,99699.71
2019-01-12T04:54:31.063Z,99695.70
2019-01-12T04:55:32.391Z,99698.38
2019-01-12T04:56:33.506Z,99693.02
2019-01-12T04:57:34.628Z,99697.04
2019-01-12T04:58:35.840Z,99694.36
2019-01-12T04:59:36.955Z,99693.35
2019-01-12T05:00:38.185Z,99693.35
2019-01-12T05:01:39.300Z,99694.69
2019-01-12T05:02:40.412Z,99690.34
2019-01-12T05:03:41.530Z,99688.00
2019-01-12T05:04:42.751Z,99698.22
2019-01-12T05:05:43.873Z,99692.86
2019-01-12T05:06:45.090Z,99689.02
2019-01-12T05:07:46.322Z,99694.36
2019-01-12T05:08:47.421Z,99680.50
2019-01-12T05:09:48.537Z,99695.70
2019-01-12T05:10:49.665Z,99687.19
2019-01-12T05:11:56.155Z,99696.36
2019-01-12T05:12:57.274Z,99698.38
2019-01-12T05:13:58.389Z,99693.35
2019-01-12T05:14:59.504Z,99697.04
2019-01-12T05:16:00.628Z,99689.86
2019-01-12T05:17:01.740Z,99702.72
2019-01-12T05:18:02.973Z,99693.35
2019-01-12T05:19:04.088Z,99699.22
2019-01-12T05:20:11.514Z,99696.22
2019-01-12T05:21:12.640Z,99699.22
2019-01-12T05:22:13.750Z,99692.53
2019-01-12T05:23:14.867Z,99698.70
2019-01-12T05:24:15.981Z,99693.35
2019-01-12T05:25:17.594Z,99692.86
2019-01-12T05:26:18.724Z,99694.69
2019-01-12T05:27:19.860Z,99705.56
2019-01-12T05:28:20.992Z,99692.86
2019-01-12T05:29:22.105Z,99702.37
2019-01-12T05:30:23.226Z,99695.87
2019-01-12T05:31:24.341Z,99691.34
2019-01-12T05:32:25.456Z,99688.33
2019-01-12T05:33:26.678Z,99698.22
2019-01-12T05:34:27.792Z,99688.33
2019-01-12T05:35:28.908Z,99687.00
2019-01-12T05:36:30.033Z,99689.18
2019-01-12T05:37:31.257Z,99685.17
2019-01-12T05:38:32.381Z,99687.32
2019-01-12T05:39:33.492Z,99690.52
2019-01-12T05:40:34.604Z,99687.84
2019-01-12T05:41:35.728Z,99681.84
2019-01-12T05:42:37.055Z,99684.84
2019-01-12T05:43:38.170Z,99691.53
2019-01-12T05:44:39.288Z,99688.00
2019-01-12T05:45:40.396Z,99690.67
2019-01-12T05:46:41.524Z,99691.01
2019-01-12T05:47:42.736Z,99690.67
2019-01-12T05:48:43.855Z,99685.33
2019-01-12T05:49:44.974Z,99688.85
2019-01-12T05:50:46.086Z,99689.67
2019-01-12T05:51:47.219Z,99694.69
2019-01-12T05:52:48.336Z,99694.20
2019-01-12T05:53:49.525Z,99703.56
2019-01-12T05:54:50.795Z,99700.04
2019-01-12T05:55:57.109Z,99701.38
2019-01-12T05:56:54.934Z,99702.39
2019-01-12T05:57:56.056Z,99703.23
2019-01-12T05:58:57.177Z,99701.05
2019-01-12T05:59:58.289Z,99694.88
2019-01-12T06:00:59.509Z,99697.04
2019-01-12T06:02:00.640Z,99697.04
2019-01-12T06:03:01.857Z,99690.34
2019-01-12T06:04:03.269Z,99694.88
2019-01-12T06:05:04.885Z,99689.53
2019-01-12T06:06:05.996Z,99689.02
2019-01-12T06:07:07.215Z,99691.69
2019-01-12T06:08:08.331Z,99689.86
2019-01-12T06:09:09.442Z,99696.87
2019-01-12T06:10:11.452Z,99693.69
2019-01-12T06:11:12.565Z,99695.02
2019-01-12T06:12:13.689Z,99697.36
2019-01-12T06:13:15.107Z,99696.87
2019-01-12T06:14:16.320Z,99697.70
2019-01-12T06:15:17.437Z,99700.38
2019-01-12T06:16:18.544Z,99702.55
2019-01-12T06:17:19.673Z,99697.70
2019-01-12T06:18:20.889Z,99696.69
2019-01-12T06:19:22.107Z,99698.55
2019-01-12T06:20:23.329Z,99692.34
2019-01-12T06:21:24.444Z,99655.02
2019-01-12T06:22:25.577Z,99690.84
2019-01-12T06:23:26.689Z,99693.00
2019-01-12T06:24:27.807Z,99683.31
2019-01-12T06:25:28.926Z,99682.30
2019-01-12T06:26:30.037Z,99687.66
2019-01-12T06:27:31.281Z,99683.16
2019-01-12T06:28:32.431Z,99686.64
2019-01-12T06:29:33.516Z,99686.48
2019-01-12T06:30:34.636Z,99682.63
2019-01-12T06:31:35.860Z,99681.30
2019-01-12T06:32:36.978Z,99686.97
2019-01-12T06:33:38.097Z,99692.33
2019-01-12T06:34:39.322Z,99697.19
2019-01-12T06:35:40.443Z,99692.33
2019-01-12T06:36:41.585Z,99693.98
2019-01-12T06:37:42.918Z,99683.95
2019-01-12T06:38:44.118Z,99677.96
2019-01-12T06:39:45.229Z,99689.30
2019-01-12T06:40:46.342Z,99683.46
2019-01-12T06:41:47.457Z,99685.28
2019-01-12T06:42:48.582Z,99682.61
2019-01-12T06:43:49.698Z,99676.25
2019-01-12T06:44:51.080Z,99681.11
2019-01-12T06:45:52.192Z,99683.30
2019-01-12T06:46:53.308Z,99668.22
2019-01-12T06:47:54.445Z,99677.95
2019-01-12T06:48:55.552Z,99673.94
2019-01-12T06:49:56.764Z,99672.59
2019-01-12T06:50:57.983Z,99672.11
2019-01-12T06:51:59.190Z,99668.91
2019-01-12T06:53:00.342Z,99665.91
2019-01-12T06:54:01.552Z,99658.73
2019-01-12T06:55:04.760Z,99662.38
2019-01-12T06:56:10.815Z,99657.03
2019-01-12T06:57:08.984Z,99657.52
2019-01-12T06:58:10.106Z,99656.05
2019-01-12T06:59:12.217Z,99654.36
2019-01-12T07:00:17.573Z,99652.53
2019-01-12T07:01:18.679Z,99656.70
2019-01-12T07:02:19.801Z,99653.50
2019-01-12T07:03:21.226Z,99646.48
2019-01-12T07:04:22.333Z,99654.03
2019-01-12T07:05:23.560Z,99648.67
2019-01-12T07:06:24.674Z,99645.16
2019-01-12T07:07:25.788Z,99649.50
2019-01-12T07:08:26.911Z,99643.66
2019-01-12T07:09:28.020Z,99646.17
2019-01-12T07:10:29.138Z,99650.02
2019-01-12T07:11:30.256Z,99651.20
2019-01-12T07:12:31.373Z,99646.50
2019-01-12T07:13:32.500Z,99650.16
2019-01-12T07:14:33.617Z,99648.28
2019-01-12T07:15:34.737Z,99643.09
2019-01-12T07:16:35.848Z,99639.38
2019-01-12T07:17:36.962Z,99641.53
2019-01-12T07:18:38.090Z,99643.66
2019-01-12T07:19:39.200Z,99642.29
2019-01-12T07:20:40.317Z,99638.57
2019-01-12T07:21:41.581Z,99635.17
2019-01-12T07:22:42.947Z,99639.00
2019-01-12T07:23:44.166Z,99632.43
2019-01-12T07:24:45.280Z,99632.20
2019-01-12T07:25:46.399Z,99630.98
2019-01-12T07:26:47.517Z,99638.62
2019-01-12T07:27:48.665Z,99632.20
2019-01-12T07:28:49.798Z,99634.34
2019-01-12T07:29:50.913Z,99640.84
2019-01-12T07:30:52.029Z,99634.75
2019-01-12T07:31:53.143Z,99635.03
2019-01-12T07:32:54.257Z,99636.48
2019-01-12T07:33:55.430Z,99635.42
2019-01-12T07:34:56.504Z,99638.38
2019-01-12T07:35:57.640Z,99628.75
2019-01-12T07:36:58.738Z,99624.39
2019-01-12T07:37:59.861Z,99623.33
2019-01-12T07:39:00.994Z,99612.87
2019-01-12T07:40:02.903Z,99621.36
2019-01-12T07:41:04.022Z,99619.80
2019-01-12T07:42:05.236Z,99617.07
2019-01-12T07:43:06.350Z,99617.54
2019-01-12T07:44:07.481Z,99614.81
2019-01-12T07:45:09.292Z,99615.45
2019-01-12T07:46:10.405Z,99615.39
2019-01-12T07:47:12.092Z,99613.16
2019-01-12T07:48:13.201Z,99611.47
2019-01-12T07:49:14.328Z,99613.80
2019-01-12T07:50:15.436Z,99609.72
2019-01-12T07:51:16.552Z,99611.39
2019-01-12T07:52:17.668Z,99614.19
2019-01-12T07:53:18.784Z,99615.67
2019-01-12T07:54:20.020Z,99617.66
2019-01-12T07:55:21.132Z,99613.95
2019-01-12T07:56:24.684Z,99616.26
2019-01-12T07:57:25.376Z,99620.08
2019-01-12T07:58:26.597Z,99612.87
2019-01-12T07:59:27.724Z,99621.25
2019-01-12T08:00:28.837Z,99617.86
2019-01-12T08:01:29.952Z,99613.84
2019-01-12T08:02:31.066Z,99611.47
2019-01-12T08:03:32.184Z,99605.08
2019-01-12T08:04:33.422Z,99607.77
2019-01-12T08:05:34.532Z,99603.74
2019-01-12T08:06:35.641Z,99601.38
2019-01-12T08:07:36.770Z,99602.72
2019-01-12T08:08:37.891Z,99595.52
2019-01-12T08:09:39.021Z,99602.23
2019-01-12T08:10:40.140Z,99596.53
2019-01-12T08:11:41.359Z,99596.22
2019-01-12T08:12:42.471Z,99597.56
2019-01-12T08:13:43.581Z,99597.23
2019-01-12T08:14:44.708Z,99599.39
2019-01-12T08:15:45.824Z,99599.92
2019-01-12T08:16:46.940Z,99596.07
2019-01-12T08:17:48.060Z,99599.28
2019-01-12T08:18:49.169Z,99597.94
2019-01-12T08:19:50.292Z,99592.75
2019-01-12T08:20:51.412Z,99587.06
2019-01-12T08:21:52.525Z,99587.06
2019-01-12T08:22:53.846Z,99585.72
2019-01-12T08:23:54.964Z,99579.18
2019-01-12T08:24:56.090Z,99578.37
2019-01-12T08:25:57.308Z,99575.36
2019-01-12T08:26:58.430Z,99583.73
2019-01-12T08:27:59.558Z,99578.54
2019-01-12T08:29:00.699Z,99579.88
2019-01-12T08:30:05.033Z,99583.41
2019-01-12T08:31:06.258Z,99583.09
2019-01-12T08:32:07.376Z,99581.22
2019-01-12T08:33:08.485Z,99583.41
2019-01-12T08:34:09.598Z,99583.41
2019-01-12T08:35:10.821Z,99579.39
2019-01-12T08:36:11.935Z,99574.02
2019-01-12T08:37:13.156Z,99582.07
2019-01-12T08:38:14.281Z,99573.49
2019-01-12T08:39:15.397Z,99566.29
2019-01-12T08:40:16.624Z,99564.10
2019-01-12T08:41:17.739Z,99563.61
2019-01-12T08:42:18.845Z,99558.23
2019-01-12T08:43:19.962Z,99554.70
2019-01-12T08:44:21.080Z,99552.87
2019-01-12T08:45:22.195Z,99548.84
2019-01-12T08:46:23.313Z,99551.53
2019-01-12T08:47:24.426Z,99552.98
2019-01-12T08:48:25.539Z,99555.66
2019-01-12T08:49:26.761Z,99558.17
2019-01-12T08:50:27.885Z,99550.13
2019-01-12T08:51:29.002Z,99549.31
2019-01-12T08:52:30.123Z,99543.41
2019-01-12T08:53:31.241Z,99543.09
2019-01-12T08:54:32.358Z,99539.39
2019-01-12T08:55:33.480Z,99536.70
2019-01-12T08:56:38.492Z,99538.36
2019-01-12T08:57:37.704Z,99536.70
2019-01-12T08:58:38.807Z,99537.88
2019-01-12T08:59:39.928Z,99539.70
2019-01-12T09:00:41.044Z,99544.05
2019-01-12T09:01:42.162Z,99541.69
2019-01-12T09:02:43.274Z,99537.88
2019-01-12T09:03:44.391Z,99536.00
2019-01-12T09:04:45.610Z,99528.47
2019-01-12T09:05:46.731Z,99536.00
2019-01-12T09:06:47.947Z,99535.19
2019-01-12T09:07:49.166Z,99534.66
2019-01-12T09:08:50.276Z,99538.69
2019-01-12T09:09:51.399Z,99539.21
2019-01-12T09:10:52.632Z,99539.00
2019-01-12T09:11:53.848Z,99531.66
2019-01-12T09:12:55.056Z,99528.72
2019-01-12T09:13:56.173Z,99530.63
2019-01-12T09:14:57.285Z,99524.24
2019-01-12T09:15:58.418Z,99530.95
2019-01-12T09:16:59.625Z,99526.92
2019-01-12T09:18:00.731Z,99529.61
2019-01-12T09:19:01.850Z,99519.72
2019-01-12T09:20:09.157Z,99518.70
2019-01-12T09:21:10.280Z,99514.98
2019-01-12T09:22:11.393Z,99519.02
2019-01-12T09:23:12.620Z,99517.99
2019-01-12T09:24:13.733Z,99518.80
2019-01-12T09:25:14.944Z,99520.47
2019-01-12T09:26:16.067Z,99516.44
2019-01-12T09:27:17.182Z,99514.08
2019-01-12T09:28:18.311Z,99522.13
2019-01-12T09:29:19.444Z,99520.78
2019-01-12T09:30:20.959Z,99516.27
2019-01-12T09:31:22.188Z,99519.77
2019-01-12T09:32:23.303Z,99513.05
2019-01-12T09:33:24.521Z,99506.34
2019-01-12T09:34:25.634Z,99504.50
2019-01-12T09:35:26.952Z,99511.00
2019-01-12T09:36:28.080Z,99510.19
2019-01-12T09:37:29.188Z,99502.95
2019-01-12T09:38:30.416Z,99498.92
2019-01-12T09:39:31.540Z,99502.45
2019-01-12T09:40:32.760Z,99498.92
2019-01-12T09:41:33.884Z,99495.42
2019-01-12T09:42:35.099Z,99497.09
2019-01-12T09:43:36.215Z,99499.95
2019-01-12T09:44:37.437Z,99493.56
2019-01-12T09:45:38.653Z,99500.27
2019-01-12T09:46:39.880Z,99495.42
2019-01-12T09:47:40.992Z,99492.22
2019-01-12T09:48:42.126Z,99491.89
2019-01-12T09:49:43.322Z,99496.45
2019-01-12T09:50:44.435Z,99493.23
2019-01-12T09:51:45.569Z,99495.42
2019-01-12T09:52:46.976Z,99495.42
2019-01-12T09:53:48.095Z,99488.89
2019-01-12T09:54:49.213Z,99490.77
2019-01-12T09:55:50.333Z,99491.58
2019-01-12T09:56:51.928Z,99483.20
2019-01-12T09:57:53.293Z,99492.60
2019-01-12T09:58:54.418Z,99487.23
2019-01-12T09:59:55.534Z,99478.16
2019-01-12T10:00:56.749Z,99481.87
2019-01-12T10:01:57.880Z,99474.13
2019-01-12T10:02:58.988Z,99475.47
2019-01-12T10:04:00.105Z,99476.95
2019-01-12T10:05:01.252Z,99474.77
2019-01-12T10:06:02.754Z,99477.27
2019-01-12T10:07:03.990Z,99480.77
2019-01-12T10:08:05.212Z,99484.09
2019-01-12T10:09:06.320Z,99484.30
2019-01-12T10:10:11.036Z,99490.80
2019-01-12T10:11:12.148Z,99495.15
2019-01-12T10:12:13.277Z,99498.36
2019-01-12T10:13:14.393Z,99489.46
2019-01-12T10:14:15.504Z,99499.39
2019-01-12T10:15:16.613Z,99496.17
2019-01-12T10:16:17.724Z,99497.52
2019-01-12T10:17:18.952Z,99491.02
2019-01-12T10:18:20.076Z,99491.51
2019-01-12T10:19:21.197Z,99489.84
2019-01-12T10:20:22.311Z,99490.87
2019-01-12T10:21:23.533Z,99487.38
2019-01-12T10:22:28.694Z,99483.84
2019-01-12T10:23:28.142Z,99483.84
2019-01-12T10:24:29.259Z,99482.19
2019-01-12T10:25:30.476Z,99475.16
2019-01-12T10:26:31.589Z,99473.49
2019-01-12T10:27:32.726Z,99479.70
2019-01-12T10:28:33.877Z,99477.52
2019-01-12T10:29:34.994Z,99476.50
2019-01-12T10:30:36.110Z,99477.84
2019-01-12T10:31:37.228Z,99476.00
2019-01-12T10:32:38.348Z,99475.47
2019-01-12T10:33:39.463Z,99474.98
2019-01-12T10:34:40.676Z,99482.50
2019-01-12T10:35:41.798Z,99475.30
2019-01-12T10:36:42.901Z,99479.32
2019-01-12T10:37:44.025Z,99478.30
2019-01-12T10:38:45.152Z,99475.41
2019-01-12T10:39:46.305Z,99472.72
2019-01-12T10:40:47.589Z,99473.35
2019-01-12T10:41:48.697Z,99472.54
2019-01-12T10:42:49.919Z,99466.33
2019-01-12T10:43:51.136Z,99467.98
2019-01-12T10:44:52.249Z,99467.48
2019-01-12T10:45:53.362Z,99470.81
2019-01-12T10:46:54.481Z,99468.94
2019-01-12T10:47:55.642Z,99469.96
2019-01-12T10:48:56.855Z,99469.78
2019-01-12T10:49:57.970Z,99467.95
2019-01-12T10:50:59.088Z,99471.45
2019-01-12T10:52:00.200Z,99471.77
2019-01-12T10:53:01.899Z,99467.23
2019-01-12T10:54:03.314Z,99474.13
2019-01-12T10:55:05.124Z,99469.08
2019-01-12T10:56:06.332Z,99469.08
2019-01-12T10:57:07.450Z,99471.77
2019-01-12T10:58:08.772Z,99472.29
2019-01-12T10:59:09.888Z,99468.76
2019-01-12T11:00:25.733Z,99464.23
2019-01-12T11:01:26.847Z,99463.39
2019-01-12T11:02:27.961Z,99461.02
2019-01-12T11:03:29.184Z,99464.23
2019-01-12T11:04:30.305Z,99458.66
2019-01-12T11:05:31.616Z,99459.19
2019-01-12T11:06:32.724Z,99461.02
2019-01-12T11:07:33.942Z,99461.88
2019-01-12T11:08:35.370Z,99457.84
2019-01-12T11:09:36.480Z,99453.81
2019-01-12T11:10:37.736Z,99453.28
2019-01-12T11:11:38.851Z,99455.47
2019-01-12T11:12:40.062Z,99454.77
2019-01-12T11:13:41.189Z,99457.95
2019-01-12T11:14:42.407Z,99459.11
2019-01-12T11:15:43.617Z,99463.95
2019-01-12T11:16:44.729Z,99457.55
2019-01-12T11:17:46.136Z,99446.81
2019-01-12T11:18:47.268Z,99440.42
2019-01-12T11:19:48.381Z,99454.70
2019-01-12T11:20:49.498Z,99449.64
2019-01-12T11:21:50.609Z,99446.95
2019-01-12T11:22:51.924Z,99436.22
2019-01-12T11:23:53.148Z,99437.87
2019-01-12T11:24:54.474Z,99440.24
2019-01-12T11:25:55.593Z,99438.38
2019-01-12T11:26:56.700Z,99441.91
2019-01-12T11:27:57.811Z,99434.88
2019-01-12T11:28:59.048Z,99439.22
2019-01-12T11:30:00.242Z,99434.34
2019-01-12T11:31:01.391Z,99435.69
2019-01-12T11:32:02.609Z,99444.59
2019-01-12T11:33:03.927Z,99443.73
2019-01-12T11:34:05.060Z,99433.84
2019-01-12T11:35:07.877Z,99441.38
2019-01-12T11:36:08.992Z,99437.55
2019-01-12T11:37:10.104Z,99439.22
2019-01-12T11:38:11.220Z,99437.87
2019-01-12T11:39:12.356Z,99434.66
2019-01-12T11:40:15.961Z,99436.00
2019-01-12T11:41:17.076Z,99436.84
2019-01-12T11:42:18.286Z,99436.53
2019-01-12T11:43:19.396Z,99427.63
2019-01-12T11:44:20.538Z,99431.97
2019-01-12T11:45:21.660Z,99422.08
2019-01-12T11:46:22.872Z,99429.29
2019-01-12T11:47:24.159Z,99422.08
2019-01-12T11:48:25.278Z,99419.08
2019-01-12T11:49:26.403Z,99423.92
2019-01-12T11:50:27.510Z,99420.73
2019-01-12T11:51:28.620Z,99419.57
2019-01-12T11:52:29.735Z,99416.39
2019-01-12T11:53:30.963Z,99420.11
2019-01-12T11:54:32.196Z,99417.91
2019-01-12T11:55:33.650Z,99423.28
2019-01-12T11:56:34.761Z,99418.44
2019-01-12T11:57:35.974Z,99418.12
2019-01-12T11:58:37.192Z,99421.63
2019-01-12T11:59:38.316Z,99419.47